Time;durP1;ratioP1;P1;durP2;ratioP2;P2;SDS_P1;SDS_P2;PMS_P1;PMS_P2;Temp;Humidity;BMP_temperature;BMP_pressure;BME280_temperature;BME280_humidity;BME280_pressure;Samples;Min_cycle;Max_cycle;Signal;HPM_P1;HPM_P2
2021/12/04 00:01:17;;;;;;;13.45;6.00;;;;;;;-0.21;100.00;99366.16;4883865;28;20035;-82
2021/12/04 00:03:53;;;;;;;12.98;5.55;;;;;;;-0.24;100.00;99361.03;4880319;28;20121;-81
2021/12/04 00:09:03;;;;;;;17.90;5.75;;;;;;;-0.17;100.00;99367.78;4884690;28;20022;-81
2021/12/04 00:11:38;;;;;;;19.50;6.75;;;;;;;-0.23;100.00;99358.44;4889266;28;20050;-80
2021/12/04 00:14:04;;;;;;;18.65;7.00;;;;;;;-0.22;100.00;99362.72;4906843;28;20412;-81
2021/12/04 00:16:38;;;;;;;17.63;6.78;;;;;;;-0.24;100.00;99364.50;4924137;28;20418;-81
2021/12/04 00:19:05;;;;;;;13.98;6.75;;;;;;;-0.24;100.00;99372.25;4892941;28;20129;-80
2021/12/04 00:21:31;;;;;;;14.63;5.82;;;1.60;99.90;;;-0.17;100.00;99372.09;4928020;28;20467;-81
2021/12/04 00:23:56;;;;;;;13.50;6.22;;;1.60;99.90;;;-0.15;100.00;99372.91;4873926;28;20035;-83
2021/12/04 00:26:32;;;;;;;16.20;6.75;;;;;;;-0.16;100.00;99381.56;4882416;28;20117;-83
2021/12/04 00:28:58;;;;;;;12.02;6.07;;;1.70;99.90;;;-0.13;100.00;99372.00;4901930;28;20026;-82
2021/12/04 00:31:24;;;;;;;15.77;5.85;;;1.70;99.90;;;-0.12;100.00;99380.59;4884186;28;20039;-81
2021/12/04 00:33:53;;;;;;;13.35;6.55;;;1.70;99.90;;;-0.13;100.00;99381.47;4896279;28;20088;-80
2021/12/04 00:36:31;;;;;;;16.88;6.53;;;1.70;99.90;;;-0.15;100.00;99376.38;4900833;28;20019;-79
2021/12/04 00:49:59;;;;;;;14.18;6.35;;;1.70;99.90;;;-0.07;100.00;99378.75;4940359;28;20040;-80
2021/12/04 00:52:25;;;;;;;14.65;6.35;;;1.80;99.90;;;-0.04;100.00;99370.91;4919324;28;20030;-78
2021/12/04 00:54:51;;;;;;;13.35;6.43;;;1.70;99.90;;;-0.05;100.00;99366.63;4908738;28;20053;-78
2021/12/04 00:57:20;;;;;;;11.75;5.55;;;1.80;99.90;;;-0.03;100.00;99364.84;4945574;28;20246;-79
2021/12/04 00:59:45;;;;;;;17.05;5.90;;;1.80;99.90;;;0.00;100.00;99369.97;4885798;28;20045;-82
2021/12/04 01:02:12;;;;;;;13.63;5.93;;;1.80;99.90;;;-0.02;100.00;99371.75;4940836;28;20039;-78
2021/12/04 01:04:38;;;;;;;12.52;5.95;;;1.80;99.90;;;-0.03;100.00;99372.59;4925778;28;20035;-79
2021/12/04 01:07:04;;;;;;;11.15;5.93;;;1.80;99.90;;;-0.04;100.00;99366.59;4919324;28;20042;-79
2021/12/04 01:09:30;;;;;;;12.50;5.72;;;1.80;99.90;;;0.01;100.00;99370.81;4920678;28;20406;-80
2021/12/04 01:11:57;;;;;;;13.35;6.00;;;1.80;99.90;;;0.02;100.00;99372.50;4908220;28;20038;-79
2021/12/04 01:14:26;;;;;;;13.07;5.68;;;1.80;99.90;;;0.06;100.00;99364.59;4926676;28;20065;-80
2021/12/04 01:16:53;;;;;;;13.60;6.88;;;1.80;99.90;;;0.06;100.00;99354.25;4896714;28;20045;-79
2021/12/04 01:19:20;;;;;;;14.68;5.20;;;1.90;99.90;;;0.07;100.00;99349.94;4925381;28;20066;-80
2021/12/04 01:21:50;;;;;;;17.00;5.95;;;1.90;99.90;;;0.09;100.00;99358.53;4936386;28;20138;-79
2021/12/04 01:24:19;;;;;;;10.40;5.35;;;1.90;99.90;;;0.13;100.00;99357.53;4939079;28;20038;-78
2021/12/04 01:26:47;;;;;;;17.17;6.03;;;1.90;99.90;;;0.10;100.00;99355.88;4928492;28;20440;-79
2021/12/04 01:29:14;;;;;;;15.98;6.07;;;1.90;99.90;;;0.10;100.00;99355.88;4950022;28;20114;-79
2021/12/04 01:31:41;;;;;;;11.90;6.22;;;1.90;99.90;;;0.09;100.00;99346.44;4905122;28;20031;-79
2021/12/04 01:34:14;;;;;;;11.23;5.43;;;1.90;99.90;;;0.02;100.00;99352.63;4925198;28;20030;-79
2021/12/04 01:36:41;;;;;;;12.35;6.10;;;1.80;99.90;;;0.07;100.00;99355.97;4913685;28;20042;-79
2021/12/04 01:39:08;;;;;;;11.50;5.15;;;1.90;99.90;;;0.16;100.00;99370.41;4883831;28;20491;-80
2021/12/04 01:41:38;;;;;;;15.88;6.45;;;1.90;99.90;;;0.18;100.00;99368.63;4933266;28;20046;-78
2021/12/04 01:44:06;;;;;;;13.63;6.32;;;2.00;99.90;;;0.18;100.00;99374.66;4927967;28;20117;-80
2021/12/04 01:46:34;;;;;;;14.35;6.78;;;2.00;99.90;;;0.23;100.00;99378.88;4934705;28;20033;-79
2021/12/04 01:49:00;;;;;;;16.17;5.75;;;2.00;99.90;;;0.18;100.00;99368.63;4922333;28;20033;-79
2021/12/04 01:51:34;;;;;;;12.50;5.90;;;2.00;99.90;;;0.18;100.00;99366.03;4934092;28;20045;-79
2021/12/04 01:54:00;;;;;;;16.73;7.38;;;2.00;99.90;;;0.16;100.00;99366.06;4923304;28;20093;-79
2021/12/04 01:56:35;;;;;;;15.52;6.78;;;2.00;99.90;;;0.18;100.00;99369.47;4903634;28;20419;-79
2021/12/04 01:59:03;;;;;;;16.80;6.10;;;2.00;99.90;;;0.14;100.00;99356.66;4938945;28;20034;-78
2021/12/04 02:01:31;;;;;;;11.45;6.30;;;2.00;99.90;;;0.14;100.00;99365.25;4949373;28;20406;-78
2021/12/04 02:03:57;;;;;;;18.60;6.95;;;1.90;99.90;;;0.14;100.00;99361.84;4917698;28;20049;-78
2021/12/04 02:06:26;;;;;;;14.10;7.00;;;2.00;99.90;;;0.16;100.00;99358.31;4919237;28;20031;-79
2021/12/04 02:08:52;;;;;;;18.33;7.70;;;2.00;99.90;;;0.14;100.00;99360.09;4873377;28;20600;-79
2021/12/04 02:11:18;;;;;;;15.40;7.38;;;1.90;99.90;;;0.16;100.00;99378.19;4931584;28;20065;-78
2021/12/04 02:13:44;;;;;;;17.80;8.13;;;1.90;99.90;;;0.12;100.00;99377.41;4942347;28;20085;-80
2021/12/04 02:16:18;;;;;;;16.08;6.72;;;2.00;99.90;;;0.13;100.00;99370.47;4921008;28;20042;-78
2021/12/04 02:18:46;;;;;;;14.38;6.75;;;2.00;99.90;;;0.18;100.00;99368.63;4921985;28;20039;-79
2021/12/04 02:21:13;;;;;;;16.13;6.25;;;2.00;99.90;;;0.18;100.00;99379.84;4954747;28;20037;-79
2021/12/04 02:23:39;;;;;;;12.10;6.28;;;2.00;99.90;;;0.22;100.00;99384.91;4908430;28;20192;-80
2021/12/04 02:26:13;;;;;;;19.95;6.43;;;2.00;99.90;;;0.22;100.00;99377.16;4913643;28;20034;-78
2021/12/04 02:28:43;;;;;;;16.50;6.85;;;2.00;99.90;;;0.19;100.00;99380.66;4918809;28;20440;-79
2021/12/04 02:31:09;;;;;;;16.02;6.65;;;2.00;99.90;;;0.26;100.00;99383.94;4944282;28;20027;-81
2021/12/04 02:33:35;;;;;;;14.40;6.93;;;2.00;99.90;;;0.23;100.00;99382.28;4937776;28;20561;-79
2021/12/04 02:36:07;;;;;;;13.23;6.57;;;2.00;99.90;;;0.23;100.00;99381.44;4930760;28;20063;-80
2021/12/04 02:38:35;;;;;;;15.77;6.13;;;2.00;99.90;;;0.20;100.00;99388.41;4928410;28;20573;-79
2021/12/04 02:41:02;;;;;;;13.23;6.28;;;2.00;99.90;;;0.25;100.00;99385.69;4926095;28;20038;-81
2021/12/04 02:43:34;;;;;;;11.75;6.75;;;2.00;99.90;;;0.24;100.00;99386.59;4841958;28;20034;-78
2021/12/04 02:46:01;;;;;;;13.77;6.75;;;2.00;99.90;;;0.26;100.00;99387.41;4928335;28;20117;-79
2021/12/04 02:48:27;;;;;;;22.35;7.15;;;2.10;99.90;;;0.28;100.00;99393.41;4935215;28;20089;-78
2021/12/04 02:50:56;;;;;;;20.23;7.10;;;2.10;99.90;;;0.27;100.00;99386.50;4936782;28;20625;-78
2021/12/04 02:53:25;;;;;;;17.00;7.20;;;2.10;99.90;;;0.26;100.00;99394.31;4907484;28;20031;-80
2021/12/04 02:55:53;;;;;;;16.88;7.40;;;2.10;99.90;;;0.23;100.00;99377.13;4915816;28;20037;-78
2021/12/04 02:58:21;;;;;;;19.02;8.20;;;2.00;99.90;;;0.25;100.00;99380.53;4887697;28;20110;-79
2021/12/04 03:00:51;;;;;;;18.92;8.35;;;2.10;99.90;;;0.28;100.00;99377.00;4933927;28;20581;-79
2021/12/04 03:03:19;;;;;;;16.55;7.20;;;2.00;99.90;;;0.30;100.00;99381.28;4934800;28;20046;-78
2021/12/04 03:05:51;;;;;;;15.98;8.13;;;2.10;99.90;;;0.34;100.00;99380.28;4934165;28;20030;-78
2021/12/04 03:08:20;;;;;;;18.10;7.82;;;2.10;99.90;;;0.31;100.00;99377.78;4912069;28;20037;-79
2021/12/04 03:10:48;;;;;;;19.00;8.38;;;2.10;99.90;;;0.31;100.00;99375.19;4871273;28;20102;-78
2021/12/04 03:13:17;;;;;;;19.92;8.35;;;;;;;0.36;100.00;99377.66;4905792;28;20035;-79
2021/12/04 03:15:46;;;;;;;24.75;8.55;;;2.20;99.90;;;0.38;100.00;99376.72;4908780;28;20070;-79
2021/12/04 03:18:12;;;;;;;22.85;8.90;;;2.10;99.90;;;0.32;100.00;99368.25;4924142;28;20065;-77
2021/12/04 03:20:44;;;;;;;19.35;8.65;;;2.10;99.90;;;0.29;100.00;99365.75;4942334;28;20512;-78
2021/12/04 03:23:19;;;;;;;20.27;8.55;;;2.10;99.90;;;0.29;100.00;99361.44;4913154;28;20031;-78
2021/12/04 03:25:49;;;;;;;22.25;9.55;;;2.00;99.90;;;0.18;100.00;99353.94;4952738;28;20030;-78
2021/12/04 03:28:17;;;;;;;20.05;9.32;;;2.00;99.90;;;0.21;100.00;99347.81;4963221;28;20112;-79
2021/12/04 03:30:51;;;;;;;22.60;9.93;;;2.00;99.90;;;0.22;100.00;99352.13;4904219;28;20061;-79
2021/12/04 03:41:19;;;;;;;23.50;9.32;;;2.00;99.90;;;0.19;100.00;99366.00;4939706;28;20042;-79
2021/12/04 03:43:45;;;;;;;19.02;9.10;;;2.00;99.90;;;0.27;100.00;99383.06;4938340;28;20035;-79
2021/12/04 03:46:15;;;;;;;20.35;8.43;;;2.10;99.90;;;0.33;100.00;99382.91;4947274;28;20027;-80
2021/12/04 03:51:07;;;;;;;22.70;9.13;;;2.10;99.90;;;0.29;100.00;99384.72;4946574;28;20034;-79
2021/12/04 03:53:35;;;;;;;21.25;9.05;;;2.10;99.90;;;0.42;100.00;99394.78;4945954;28;20115;-77
2021/12/04 03:56:03;;;;;;;22.45;9.25;;;2.20;99.90;;;0.36;100.00;99393.19;4913660;28;20068;-79
2021/12/04 03:58:29;;;;;;;16.90;8.00;;;2.20;99.90;;;0.33;100.00;99396.72;4946089;28;20054;-78
2021/12/04 04:00:56;;;;;;;20.42;8.57;;;2.20;99.90;;;0.43;100.00;99405.06;4886290;28;20118;-80
2021/12/04 04:03:25;;;;;;;27.23;9.30;;;2.20;99.90;;;0.40;100.00;99389.63;4923374;28;20586;-78
2021/12/04 04:05:51;;;;;;;25.98;9.75;;;2.20;99.90;;;0.43;100.00;99394.72;4898944;28;20145;-80
2021/12/04 04:08:17;;;;;;;23.40;9.85;;;2.20;99.90;;;0.42;100.00;99403.38;4892951;28;20041;-80
2021/12/04 04:10:44;;;;;;;26.10;9.35;;;2.20;99.90;;;0.44;100.00;99400.78;4902983;28;20063;-80
2021/12/04 04:13:12;;;;;;;23.75;10.20;;;2.30;99.90;;;0.45;100.00;99400.69;4943809;28;20046;-80
2021/12/04 04:15:39;;;;;;;23.67;10.10;;;2.30;99.90;;;0.47;100.00;99398.94;4947267;28;20198;-79
2021/12/04 04:18:06;;;;;;;22.15;10.35;;;2.00;99.90;;;0.47;100.00;99398.09;4900325;28;20049;-79
2021/12/04 04:20:40;;;;;;;27.60;10.57;;;2.30;99.90;;;0.48;100.00;99392.88;4902835;28;20182;-79
2021/12/04 04:23:06;;;;;;;23.73;10.55;;;2.30;99.90;;;0.48;100.00;99400.66;4955915;28;20482;-79
2021/12/04 04:25:32;;;;;;;24.23;9.88;;;2.30;99.90;;;0.50;100.00;99400.59;4916216;28;20034;-79
2021/12/04 04:28:01;;;;;;;21.88;9.38;;;2.30;99.90;;;0.53;100.00;99405.69;4905600;28;20030;-78
2021/12/04 04:30:27;;;;;;;25.88;10.20;;;2.30;99.90;;;0.50;100.00;99403.19;4898742;28;20046;-80
2021/12/04 04:32:54;;;;;;;27.65;11.40;;;2.30;99.90;;;0.54;100.00;99408.25;4936690;28;20031;-79
2021/12/04 04:35:23;;;;;;;28.17;10.50;;;2.30;99.90;;;0.50;100.00;99401.44;4904294;28;20027;-79
2021/12/04 04:57:34;;;;;;;24.23;10.10;;;2.30;99.90;;;0.56;100.00;99403.88;4941316;28;20069;-79
2021/12/04 05:00:33;;;;;;;28.52;10.50;;;2.30;99.90;;;0.54;100.00;99416.03;4925172;28;20042;-79
2021/12/04 05:13:39;;;;;;;25.13;11.05;;;2.40;99.90;;;0.61;100.00;99427.91;4951382;28;20058;-78
2021/12/04 05:16:13;;;;;;;32.05;12.18;;;2.40;99.90;;;0.59;100.00;99423.66;4922196;28;21096;-78
2021/12/04 05:18:51;;;;;;;28.30;11.05;;;2.40;99.90;;;0.56;100.00;99422.00;4929013;28;20126;-78
2021/12/04 05:21:18;;;;;;;34.67;13.05;;;2.40;99.90;;;0.60;100.00;99427.94;4938285;28;20089;-77
2021/12/04 05:23:53;;;;;;;30.58;11.05;;;2.50;99.90;;;0.65;100.00;99427.81;4907751;28;20390;-78
2021/12/04 05:26:29;;;;;;;29.55;11.80;;;2.40;99.90;;;0.61;100.00;99419.28;4946214;28;20106;-77
2021/12/04 05:28:59;;;;;;;28.55;11.90;;;2.30;99.90;;;0.58;100.00;99425.41;4945865;28;20034;-78
2021/12/04 05:31:27;;;;;;;28.92;10.48;;;2.40;99.90;;;0.59;100.00;99423.66;4913572;28;20042;-78
2021/12/04 05:33:53;;;;;;;33.95;12.00;;;2.40;99.90;;;0.59;100.00;99426.25;4927605;28;20116;-78
2021/12/04 05:36:20;;;;;;;32.47;11.65;;;2.40;99.90;;;0.58;100.00;99440.09;4898409;28;20022;-78
2021/12/04 05:38:46;;;;;;;31.85;11.95;;;2.40;99.90;;;0.58;100.00;99433.19;4976028;28;20039;-78
2021/12/04 05:41:12;;;;;;;31.92;11.38;;;2.40;99.90;;;0.59;100.00;99442.66;4924977;28;20113;-77
2021/12/04 05:43:39;;;;;;;30.02;11.30;;;2.40;99.90;;;0.59;100.00;99442.66;4949042;28;21076;-77
2021/12/04 05:46:18;;;;;;;28.58;11.65;;;2.40;99.90;;;0.61;100.00;99434.84;4925528;28;20556;-77
2021/12/04 05:48:51;;;;;;;33.25;11.60;;;2.40;99.90;;;0.59;100.00;99437.47;4936081;28;20039;-77
2021/12/04 05:56:16;;;;;;;40.05;12.00;;;2.40;99.90;;;0.58;100.00;99438.38;4944667;28;20127;-78
2021/12/04 05:58:43;;;;;;;28.90;11.02;;;2.40;99.90;;;0.62;100.00;99446.88;4925741;28;20658;-78
2021/12/04 06:01:10;;;;;;;29.10;10.93;;;2.40;99.90;;;0.63;100.00;99460.69;4927295;28;20038;-77
2021/12/04 06:03:36;;;;;;;31.77;12.43;;;2.40;99.90;;;0.60;100.00;99459.03;4942971;28;20027;-77
2021/12/04 06:06:05;;;;;;;31.40;11.65;;;2.40;99.90;;;0.65;100.00;99461.50;4928033;28;20019;-77
2021/12/04 06:08:31;;;;;;;28.92;10.60;;;2.40;99.90;;;0.63;100.00;99463.28;4929254;28;20038;-77
2021/12/04 06:10:58;;;;;;;34.20;10.73;;;2.40;99.90;;;0.70;100.00;99477.78;4919289;28;20027;-77
2021/12/04 06:13:25;;;;;;;32.88;12.13;;;2.50;99.90;;;0.69;100.00;99473.47;4926824;28;20044;-77
2021/12/04 06:15:55;;;;;;;34.22;11.57;;;2.40;99.90;;;0.68;100.00;99487.34;4919535;28;20549;-78
2021/12/04 06:18:22;;;;;;;26.85;10.52;;;2.50;99.90;;;0.69;100.00;99483.84;4943040;28;20051;-77
2021/12/04 06:23:35;;;;;;;157.93;21.05;;;2.50;99.90;;;0.70;100.00;99486.41;4942403;28;20089;-77
2021/12/04 06:26:03;;;;;;;35.50;13.05;;;2.50;99.90;;;0.72;100.00;99486.38;4949488;28;20415;-77
2021/12/04 06:28:29;;;;;;;30.75;11.52;;;2.50;99.90;;;0.74;100.00;99490.63;4955584;28;20463;-77
2021/12/04 06:30:59;;;;;;;27.13;10.73;;;2.50;99.90;;;0.73;100.00;99486.31;4946803;28;20026;-77
2021/12/04 06:33:27;;;;;;;39.20;11.05;;;2.50;99.90;;;0.70;100.00;99485.56;4959752;28;20057;-77
2021/12/04 06:35:54;;;;;;;28.60;12.13;;;2.50;99.90;;;0.73;100.00;99491.50;4942470;28;20118;-77
2021/12/04 06:38:20;;;;;;;34.90;11.60;;;2.50;99.90;;;0.71;100.00;99485.50;4937623;28;20043;-77
2021/12/04 06:40:48;;;;;;;31.88;11.57;;;2.50;99.90;;;0.72;100.00;99491.56;4958003;28;20117;-77
2021/12/04 06:43:16;;;;;;;280.17;33.20;;;2.50;99.90;;;0.71;100.00;99497.59;4938837;28;20074;-77
2021/12/04 06:45:45;;;;;;;542.40;159.90;;;2.50;99.90;;;0.76;100.00;99496.63;4949305;28;20495;-77
2021/12/04 06:48:23;;;;;;;65.13;22.55;;;2.50;99.90;;;0.76;100.00;99500.94;4923505;28;20031;-76
2021/12/04 06:50:52;;;;;;;32.42;11.07;;;2.60;99.90;;;0.74;100.00;99505.31;4940431;28;20019;-77
2021/12/04 06:55:57;;;;;;;34.95;11.95;;;2.50;99.90;;;0.65;100.00;99508.13;4982202;28;20027;-77
2021/12/04 06:58:29;;;;;;;32.53;9.85;;;2.50;99.90;;;0.70;100.00;99504.53;4936278;28;20514;-77
2021/12/04 07:00:56;;;;;;;33.35;10.10;;;2.50;99.90;;;0.76;100.00;99516.50;4935161;28;20568;-77
2021/12/04 07:03:22;;;;;;;28.70;10.13;;;2.50;99.90;;;0.71;100.00;99518.34;4946707;28;20117;-79
2021/12/04 07:05:49;;;;;;;33.97;11.90;;;2.50;99.90;;;0.69;100.00;99520.13;4943747;28;20034;-77
2021/12/04 07:08:15;;;;;;;29.40;11.50;;;2.50;99.90;;;0.73;100.00;99514.81;4977657;28;20486;-77
2021/12/04 07:10:43;;;;;;;33.80;3.05;;;2.50;99.90;;;0.72;100.00;99512.28;4915200;28;20029;-77
2021/12/04 07:13:10;;;;;;;32.10;10.35;;;2.50;99.90;;;0.68;100.00;99511.50;4943968;28;20043;-77
2021/12/04 07:15:36;;;;;;;31.92;10.65;;;2.50;99.90;;;0.72;100.00;99499.31;4938288;28;20041;-77
2021/12/04 07:18:03;;;;;;;28.40;10.88;;;2.50;99.90;;;0.73;100.00;99513.97;4935842;28;20046;-78
2021/12/04 07:20:30;;;;;;;24.92;8.75;;;2.60;99.90;;;0.80;100.00;99518.97;4944698;28;20523;-77
2021/12/04 07:22:59;;;;;;;25.67;8.18;;;2.60;99.90;;;0.78;100.00;99509.53;4934350;28;20538;-77
2021/12/04 07:25:26;;;;;;;18.88;7.30;;;2.60;99.90;;;0.82;100.00;99511.13;4951088;28;20027;-78
2021/12/04 07:27:53;;;;;;;19.75;7.30;;;2.60;99.90;;;0.86;100.00;99512.75;4953079;28;20030;-77
2021/12/04 07:30:21;;;;;;;20.50;8.07;;;2.70;99.90;;;0.86;100.00;99517.94;4941621;28;20594;-77
2021/12/04 07:32:49;;;;;;;25.80;8.20;;;2.60;99.90;;;0.83;100.00;99510.25;4905002;28;20076;-77
2021/12/04 07:35:16;;;;;;;23.95;7.72;;;2.60;99.90;;;0.83;100.00;99512.84;4929505;28;20483;-77
2021/12/04 07:37:43;;;;;;;26.52;8.43;;;2.60;99.90;;;0.80;100.00;99513.78;4951517;28;20399;-77
2021/12/04 07:40:11;;;;;;;31.63;11.43;;;2.60;99.90;;;0.83;100.00;99505.06;4956821;28;20649;-78
2021/12/04 07:42:37;;;;;;;35.05;11.50;;;2.60;99.90;;;0.85;100.00;99495.53;4929288;28;20042;-78
2021/12/04 07:45:05;;;;;;;32.53;12.95;;;2.70;99.90;;;0.85;100.00;99505.88;4951227;28;20035;-78
2021/12/04 07:47:31;;;;;;;33.25;12.25;;;2.60;99.90;;;0.85;100.00;99505.03;4946262;28;20022;-78
2021/12/04 07:49:58;;;;;;;29.75;10.52;;;2.60;99.90;;;0.85;100.00;99507.63;4944212;28;20101;-78
2021/12/04 07:52:24;;;;;;;27.90;10.27;;;2.70;99.90;;;0.89;100.00;99517.03;4945171;28;20026;-77
2021/12/04 07:54:50;;;;;;;26.52;9.38;;;2.60;99.90;;;0.89;100.00;99470.38;4921283;28;20399;-78
2021/12/04 07:57:17;;;;;;;26.13;9.05;;;2.70;99.90;;;0.90;100.00;99511.78;4955186;28;20085;-78
2021/12/04 07:59:46;;;;;;;27.38;8.82;;;2.70;99.90;;;0.91;100.00;99512.66;4956941;28;20027;-78
2021/12/04 08:02:12;;;;;;;24.90;8.27;;;2.70;99.90;;;0.94;100.00;99531.56;4934919;28;20568;-78
2021/12/04 08:04:39;;;;;;;26.42;8.40;;;2.70;99.90;;;0.94;100.00;99510.81;4944496;28;20038;-78
2021/12/04 08:07:06;;;;;;;28.98;10.48;;;2.70;99.90;;;0.96;100.00;99509.03;4920400;28;21138;-81
2021/12/04 08:09:32;;;;;;;30.50;9.30;;;4.50;99.90;;;0.98;100.00;99509.00;4922083;28;20023;-78
2021/12/04 08:11:58;;;;;;;27.83;10.35;;;2.70;99.90;;;0.94;100.00;99513.41;4879367;28;20026;-78
2021/12/04 08:14:24;;;;;;;28.77;10.30;;;2.70;99.90;;;0.93;100.00;99506.53;4938818;28;20026;-79
2021/12/04 08:16:52;;;;;;;35.45;10.52;;;2.70;99.90;;;0.96;100.00;99503.84;4934290;28;20027;-79
2021/12/04 08:19:19;;;;;;;34.88;10.73;;;2.70;99.90;;;0.92;100.00;99511.75;4925437;28;20051;-79
2021/12/04 08:21:46;;;;;;;39.17;10.13;;;2.70;99.90;;;0.96;100.00;99514.22;4885859;28;20038;-79
2021/12/04 08:24:12;;;;;;;27.77;10.00;;;2.70;99.90;;;0.95;100.00;99511.66;4931710;28;20031;-79
2021/12/04 08:26:41;;;;;;;27.80;9.57;;;2.70;99.90;;;0.97;100.00;99520.25;4891452;28;20035;-79
2021/12/04 08:29:08;;;;;;;25.73;8.75;;;2.70;99.90;;;0.95;100.00;99514.25;4895043;28;20061;-80
2021/12/04 08:31:34;;;;;;;23.75;8.60;;;2.70;99.90;;;0.95;100.00;99512.53;4873514;28;20077;-78
2021/12/04 08:34:01;;;;;;;27.52;9.38;;;2.70;99.90;;;0.94;100.00;99513.41;4899968;28;20019;-80
2021/12/04 08:36:28;;;;;;;357.58;35.17;;;2.70;99.90;;;0.96;100.00;99513.38;4955545;28;20057;-81
2021/12/04 08:39:02;;;;;;;61.33;40.10;;;3.80;99.90;;;0.95;100.00;99511.66;4925876;28;21528;-81
2021/12/04 08:41:28;;;;;;;24.17;9.25;;;2.70;99.90;;;0.95;100.00;99514.25;4881826;28;20046;-82
2021/12/04 08:43:55;;;;;;;37.25;15.02;;;2.70;99.90;;;0.93;100.00;99519.50;4866564;28;20034;-82
2021/12/04 08:46:25;;;;;;;34.20;10.70;;;2.70;99.90;;;0.91;100.00;99513.50;4885180;28;20046;-82
2021/12/04 08:48:57;;;;;;;107.30;53.97;;;2.70;99.90;;;0.93;100.00;99519.50;4893868;28;20038;-81
2021/12/04 08:51:23;;;;;;;689.92;139.18;;;2.70;99.90;;;0.93;100.00;99516.03;4900501;28;20023;-80
2021/12/04 08:54:01;;;;;;;32.58;10.55;;;2.70;99.90;;;0.96;100.00;99519.41;4903591;28;20027;-80
2021/12/04 08:56:28;;;;;;;35.08;10.85;;;2.70;99.90;;;0.99;100.00;99519.34;4915557;28;20685;-81
2021/12/04 08:58:59;;;;;;;28.60;9.90;;;2.80;99.90;;;1.00;100.00;99522.78;4922393;28;20080;-80
2021/12/04 09:01:30;;;;;;;182.98;84.90;;;2.80;99.90;;;1.06;100.00;99519.16;4911259;28;20043;-80
2021/12/04 09:04:26;;;;;;;33.20;11.30;;;2.80;99.90;;;1.03;100.00;99510.56;4889640;28;20061;-80
2021/12/04 09:06:59;;;;;;;36.40;11.27;;;2.80;99.90;;;1.02;100.00;99508.88;4878907;28;20030;-81
2021/12/04 09:09:28;;;;;;;45.17;12.55;;;2.80;99.90;;;1.07;100.00;99513.94;4868242;28;20428;-81
2021/12/04 09:12:03;;;;;;;36.33;11.20;;;2.80;99.90;;;1.04;100.00;99514.03;4846575;28;20046;-80
2021/12/04 09:14:33;;;;;;;35.92;11.48;;;2.80;99.90;;;1.02;100.00;99514.06;4892517;28;20035;-81
2021/12/04 09:17:06;;;;;;;35.88;11.07;;;2.80;99.90;;;1.02;100.00;99511.47;4883031;28;20505;-82
2021/12/04 09:19:33;;;;;;;29.85;10.50;;;2.70;99.90;;;1.00;100.00;99510.66;4903642;28;20141;-81
2021/12/04 09:22:05;;;;;;;34.17;11.63;;;2.80;99.90;;;1.01;100.00;99519.28;4885928;28;20039;-80
2021/12/04 09:24:39;;;;;;;28.10;10.65;;;2.80;99.90;;;1.01;100.00;99507.16;4892070;28;20513;-81
2021/12/04 09:27:32;;;;;;;35.53;10.30;;;2.80;99.90;;;1.03;100.00;99515.75;4874636;28;20034;-81
2021/12/04 09:30:09;;;;;;;30.80;9.43;;;2.70;99.90;;;1.01;100.00;99521.88;4922731;28;20086;-81
2021/12/04 10:00:41;;;;;;;30.77;9.32;;;2.60;99.90;;;0.85;100.00;99529.22;4892163;28;21348;-82
2021/12/04 10:19:50;;;;;;;348.75;38.60;;;2.60;99.90;;;0.88;100.00;99498.03;4901553;28;20155;-82
2021/12/04 10:22:25;;;;;;;29.63;9.10;;;2.60;99.90;;;0.88;100.00;99485.06;4888018;28;20050;-80
2021/12/04 10:34:01;;;;;;;24.00;8.20;;;2.70;99.90;;;0.95;100.00;99488.34;4925988;28;20051;-79
2021/12/04 10:36:39;;;;;;;34.28;8.02;;;2.70;99.90;;;0.93;100.00;99479.75;4885064;28;20538;-77
2021/12/04 10:39:09;;;;;;;15.50;5.60;;;2.70;99.90;;;0.89;100.00;99468.63;4906781;28;20047;-79
2021/12/04 10:41:43;;;;;;;19.73;6.70;;;2.60;99.90;;;0.86;100.00;99460.91;4873236;28;20042;-79
2021/12/04 10:44:09;;;;;;;27.67;11.43;;;2.60;99.90;;;0.88;100.00;99459.13;4892788;28;20030;-79
2021/12/04 10:46:35;;;;;;;1999.90;999.90;;;2.70;99.90;;;0.91;100.00;99453.88;4929677;28;20045;-80
2021/12/04 10:49:13;;;;;;;20.88;6.25;;;2.70;99.90;;;0.93;100.00;99454.69;4894668;28;20191;-79
2021/12/04 10:51:49;;;;;;;25.48;6.63;;;2.70;99.90;;;0.98;100.00;99455.41;4894480;28;20110;-81
2021/12/04 10:54:26;;;;;;;17.50;6.40;;;2.70;99.90;;;0.96;100.00;99441.66;4870804;28;20033;-80
2021/12/04 10:57:28;;;;;;;23.33;6.50;;;2.70;99.90;;;0.99;100.00;99433.81;4894654;28;20398;-81
2021/12/04 11:00:19;;;;;;;24.23;7.25;;;2.80;99.90;;;1.07;100.00;99430.13;4912191;28;20046;-81
2021/12/04 11:02:49;;;;;;;27.08;5.90;;;2.80;99.90;;;1.06;100.00;99434.47;4903429;28;20035;-82
2021/12/04 11:43:56;;;;;;;24.05;7.53;;;3.10;99.90;;;1.43;100.00;99400.53;4886717;28;20031;-81
2021/12/04 11:46:44;;;;;;;18.10;7.00;;;3.20;99.90;;;1.50;100.00;99398.59;4874085;28;20031;-81
2021/12/04 11:49:25;;;;;;;26.67;7.53;;;3.20;99.90;;;1.53;100.00;99389.84;4886247;28;20040;-81
2021/12/04 11:52:01;;;;;;;26.05;7.15;;;3.20;99.90;;;1.50;100.00;99382.19;4891718;28;20389;-81
2021/12/04 11:54:42;;;;;;;;;;;3.20;99.90;;;1.52;100.00;99383.81;4889135;28;20550;-80
2021/12/04 11:57:12;;;;;;;21.77;6.00;;;3.20;99.90;;;1.50;100.00;99379.59;4901209;28;20306;-80
2021/12/04 11:59:42;;;;;;;17.05;6.40;;;3.20;99.90;;;1.53;100.00;99366.50;4932336;28;20047;-80
2021/12/04 12:02:23;;;;;;;20.50;7.47;;;3.30;99.90;;;1.60;100.00;99362.84;4897058;28;20034;-81
2021/12/04 12:04:54;;;;;;;19.10;7.03;;;3.30;99.90;;;1.53;100.00;99367.34;4886544;28;20434;-81
2021/12/04 12:07:32;;;;;;;18.20;6.72;;;3.20;99.90;;;1.56;100.00;99364.69;4894136;28;20043;-80
2021/12/04 12:10:27;;;;;;;28.45;7.85;;;3.30;99.90;;;1.60;100.00;99342.94;4898714;28;20073;-80
2021/12/04 12:13:04;;;;;;;21.20;7.82;;;3.40;99.90;;;1.69;100.00;99359.94;4903813;28;20125;-81
2021/12/04 12:15:36;;;;;;;22.23;7.28;;;3.50;99.90;;;1.74;100.00;99360.63;4901605;28;20034;-80
2021/12/04 12:18:19;;;;;;;22.80;7.80;;;3.50;99.90;;;1.78;100.00;99357.03;4907393;28;20042;-80
2021/12/04 12:21:02;;;;;;;60.95;55.72;;;3.50;99.90;;;1.86;100.00;99364.59;4894060;28;20038;-81
2021/12/04 12:27:09;;;;;;;19.48;6.38;;;3.70;99.90;;;1.96;100.00;99340.00;4897545;28;20499;-80
2021/12/04 12:38:49;;;;;;;21.73;7.45;;;3.80;99.90;;;2.09;100.00;99326.63;4907183;28;21614;-79
2021/12/04 12:41:38;;;;;;;16.13;6.25;;;3.80;99.90;;;2.06;100.00;99322.38;4908964;28;20031;-79
2021/12/04 12:44:25;;;;;;;15.43;6.40;;;3.70;99.90;;;2.01;100.00;99314.75;4872204;28;20071;-80
2021/12/04 12:46:56;;;;;;;18.23;7.03;;;3.80;99.90;;;2.03;100.00;99319.88;4922937;28;20510;-78
2021/12/04 12:49:41;;;;;;;17.75;6.45;;;3.80;99.90;;;2.08;100.00;99315.41;4915851;28;20106;-80
2021/12/04 12:52:20;;;;;;;11.95;6.20;;;3.80;99.90;;;2.09;100.00;99317.06;4932121;28;20035;-79
2021/12/04 12:54:59;;;;;;;19.17;7.35;;;3.80;99.90;;;2.02;100.00;99316.44;4919789;28;20498;-79
2021/12/04 12:57:29;;;;;;;21.13;7.60;;;3.70;99.90;;;1.92;100.00;99309.84;4862299;28;20031;-80
2021/12/04 13:11:50;;;;;;;14.98;6.07;;;3.50;99.90;;;1.79;100.00;99301.66;4930362;28;20063;-79
2021/12/04 13:14:34;;;;;;;19.63;7.57;;;3.40;99.90;;;1.65;100.00;99298.66;4922649;28;20503;-78
2021/12/04 13:17:25;;;;;;;23.80;8.75;;;3.40;99.90;;;1.61;100.00;99305.69;4892501;28;20057;-78
2021/12/04 13:19:55;;;;;;;20.30;8.35;;;3.30;99.90;;;1.53;100.00;99302.50;4897700;28;20041;-79
2021/12/04 13:22:31;;;;;;;20.23;8.68;;;3.30;99.90;;;1.46;100.00;99302.75;4882703;28;20042;-79
2021/12/04 13:25:06;;;;;;;19.48;8.82;;;3.20;99.90;;;1.42;100.00;99304.59;4881000;28;20033;-79
2021/12/04 13:30:18;;;;;;;22.55;8.88;;;3.20;99.90;;;1.42;100.00;99308.03;4894731;28;20502;-79
2021/12/04 13:32:51;;;;;;;29.23;11.85;;;3.20;99.90;;;1.47;100.00;99307.91;4868509;28;20121;-79
2021/12/04 13:35:22;;;;;;;30.65;11.07;;;3.20;99.90;;;1.46;100.00;99324.34;4899486;28;20100;-79